sensor_id;sensor_type;location;lat;lon;timestamp;P1;durP1;ratioP1;P2;durP2;ratioP2
75793;SDS011;64418;47.536;19.074;2023-07-16T00:00:38;11.65;;;10.45;;
75793;SDS011;64418;47.536;19.074;2023-07-16T00:03:04;12.13;;;10.20;;
75793;SDS011;64418;47.536;19.074;2023-07-16T00:05:34;11.63;;;10.40;;
75793;SDS011;64418;47.536;19.074;2023-07-16T00:08:03;16.67;;;11.18;;
75793;SDS011;64418;47.536;19.074;2023-07-16T00:10:29;15.93;;;11.00;;
75793;SDS011;64418;47.536;19.074;2023-07-16T00:12:59;12.13;;;10.43;;
75793;SDS011;64418;47.536;19.074;2023-07-16T00:15:27;11.93;;;10.65;;
75793;SDS011;64418;47.536;19.074;2023-07-16T00:17:53;11.37;;;10.23;;
75793;SDS011;64418;47.536;19.074;2023-07-16T00:20:19;13.00;;;10.57;;
75793;SDS011;64418;47.536;19.074;2023-07-16T00:22:49;13.18;;;9.85;;
75793;SDS011;64418;47.536;19.074;2023-07-16T00:25:15;11.70;;;10.50;;
75793;SDS011;64418;47.536;19.074;2023-07-16T00:27:41;12.00;;;10.40;;
75793;SDS011;64418;47.536;19.074;2023-07-16T00:30:07;11.73;;;10.48;;
75793;SDS011;64418;47.536;19.074;2023-07-16T00:32:34;11.82;;;10.18;;
75793;SDS011;64418;47.536;19.074;2023-07-16T00:35:00;12.17;;;10.30;;
75793;SDS011;64418;47.536;19.074;2023-07-16T00:37:27;11.00;;;9.88;;
75793;SDS011;64418;47.536;19.074;2023-07-16T00:39:55;12.80;;;10.65;;
75793;SDS011;64418;47.536;19.074;2023-07-16T00:42:21;12.98;;;10.20;;
75793;SDS011;64418;47.536;19.074;2023-07-16T00:44:49;11.60;;;10.40;;
75793;SDS011;64418;47.536;19.074;2023-07-16T00:47:35;12.13;;;10.03;;
75793;SDS011;64418;47.536;19.074;2023-07-16T00:50:01;12.20;;;10.90;;
75793;SDS011;64418;47.536;19.074;2023-07-16T00:52:27;12.40;;;10.57;;
75793;SDS011;64418;47.536;19.074;2023-07-16T00:54:55;12.07;;;10.88;;
75793;SDS011;64418;47.536;19.074;2023-07-16T00:57:21;11.65;;;10.45;;
75793;SDS011;64418;47.536;19.074;2023-07-16T01:00:10;12.33;;;10.20;;
75793;SDS011;64418;47.536;19.074;2023-07-16T01:02:38;11.80;;;10.52;;
75793;SDS011;64418;47.536;19.074;2023-07-16T01:05:05;12.05;;;10.85;;
75793;SDS011;64418;47.536;19.074;2023-07-16T01:07:31;10.88;;;9.88;;
75793;SDS011;64418;47.536;19.074;2023-07-16T01:10:00;12.15;;;10.65;;
75793;SDS011;64418;47.536;19.074;2023-07-16T01:12:26;11.00;;;9.50;;
75793;SDS011;64418;47.536;19.074;2023-07-16T01:14:53;11.23;;;10.02;;
75793;SDS011;64418;47.536;19.074;2023-07-16T01:17:25;11.52;;;10.13;;
75793;SDS011;64418;47.536;19.074;2023-07-16T01:19:50;10.85;;;9.45;;
75793;SDS011;64418;47.536;19.074;2023-07-16T01:22:27;15.85;;;10.48;;
75793;SDS011;64418;47.536;19.074;2023-07-16T01:25:09;11.93;;;9.90;;
75793;SDS011;64418;47.536;19.074;2023-07-16T01:27:59;11.55;;;9.68;;
75793;SDS011;64418;47.536;19.074;2023-07-16T01:30:39;14.13;;;10.55;;
75793;SDS011;64418;47.536;19.074;2023-07-16T01:33:08;12.35;;;10.00;;
75793;SDS011;64418;47.536;19.074;2023-07-16T01:35:57;12.48;;;9.43;;
75793;SDS011;64418;47.536;19.074;2023-07-16T01:38:24;11.43;;;9.37;;
75793;SDS011;64418;47.536;19.074;2023-07-16T01:40:50;11.50;;;9.68;;
75793;SDS011;64418;47.536;19.074;2023-07-16T01:43:16;13.02;;;10.18;;
75793;SDS011;64418;47.536;19.074;2023-07-16T01:45:43;10.75;;;9.63;;
75793;SDS011;64418;47.536;19.074;2023-07-16T01:48:13;11.00;;;9.53;;
75793;SDS011;64418;47.536;19.074;2023-07-16T01:50:46;11.95;;;9.30;;
75793;SDS011;64418;47.536;19.074;2023-07-16T01:53:12;10.82;;;8.80;;
75793;SDS011;64418;47.536;19.074;2023-07-16T01:55:39;11.95;;;9.88;;
75793;SDS011;64418;47.536;19.074;2023-07-16T01:58:05;11.90;;;10.20;;
75793;SDS011;64418;47.536;19.074;2023-07-16T02:00:31;12.57;;;9.97;;
75793;SDS011;64418;47.536;19.074;2023-07-16T02:03:18;11.15;;;9.77;;
75793;SDS011;64418;47.536;19.074;2023-07-16T02:05:44;10.75;;;9.65;;
75793;SDS011;64418;47.536;19.074;2023-07-16T02:08:10;10.60;;;9.13;;
75793;SDS011;64418;47.536;19.074;2023-07-16T02:10:37;10.73;;;9.40;;
75793;SDS011;64418;47.536;19.074;2023-07-16T02:13:03;11.13;;;9.27;;
75793;SDS011;64418;47.536;19.074;2023-07-16T02:15:32;11.80;;;8.80;;
75793;SDS011;64418;47.536;19.074;2023-07-16T02:17:57;9.77;;;8.52;;
75793;SDS011;64418;47.536;19.074;2023-07-16T02:20:25;9.40;;;8.38;;
75793;SDS011;64418;47.536;19.074;2023-07-16T02:22:51;12.07;;;8.47;;
75793;SDS011;64418;47.536;19.074;2023-07-16T02:25:36;13.00;;;10.13;;
75793;SDS011;64418;47.536;19.074;2023-07-16T02:28:02;10.68;;;8.68;;
75793;SDS011;64418;47.536;19.074;2023-07-16T02:30:48;10.90;;;8.77;;
75793;SDS011;64418;47.536;19.074;2023-07-16T02:33:14;10.00;;;9.00;;
75793;SDS011;64418;47.536;19.074;2023-07-16T02:35:42;10.15;;;8.55;;
75793;SDS011;64418;47.536;19.074;2023-07-16T02:38:11;12.15;;;9.00;;
75793;SDS011;64418;47.536;19.074;2023-07-16T02:40:42;10.97;;;8.73;;
75793;SDS011;64418;47.536;19.074;2023-07-16T02:43:08;11.77;;;8.60;;
75793;SDS011;64418;47.536;19.074;2023-07-16T02:45:37;11.65;;;8.40;;
75793;SDS011;64418;47.536;19.074;2023-07-16T02:48:04;10.18;;;8.98;;
75793;SDS011;64418;47.536;19.074;2023-07-16T02:50:33;10.05;;;9.02;;
75793;SDS011;64418;47.536;19.074;2023-07-16T02:53:04;9.40;;;8.50;;
75793;SDS011;64418;47.536;19.074;2023-07-16T02:55:31;10.68;;;9.13;;
75793;SDS011;64418;47.536;19.074;2023-07-16T02:57:57;12.45;;;8.63;;
75793;SDS011;64418;47.536;19.074;2023-07-16T03:00:23;10.38;;;8.38;;
75793;SDS011;64418;47.536;19.074;2023-07-16T03:02:49;11.32;;;8.75;;
75793;SDS011;64418;47.536;19.074;2023-07-16T03:05:15;9.90;;;8.17;;
75793;SDS011;64418;47.536;19.074;2023-07-16T03:07:44;11.07;;;8.43;;
75793;SDS011;64418;47.536;19.074;2023-07-16T03:10:11;9.85;;;8.32;;
75793;SDS011;64418;47.536;19.074;2023-07-16T03:12:37;9.77;;;8.15;;
75793;SDS011;64418;47.536;19.074;2023-07-16T03:15:05;9.60;;;8.50;;
75793;SDS011;64418;47.536;19.074;2023-07-16T03:17:32;10.32;;;8.65;;
75793;SDS011;64418;47.536;19.074;2023-07-16T03:19:57;10.07;;;8.53;;
75793;SDS011;64418;47.536;19.074;2023-07-16T03:22:24;11.27;;;9.18;;
75793;SDS011;64418;47.536;19.074;2023-07-16T03:24:50;11.12;;;8.70;;
75793;SDS011;64418;47.536;19.074;2023-07-16T03:27:17;11.82;;;8.70;;
75793;SDS011;64418;47.536;19.074;2023-07-16T03:29:43;10.88;;;8.57;;
75793;SDS011;64418;47.536;19.074;2023-07-16T03:32:09;9.40;;;8.40;;
75793;SDS011;64418;47.536;19.074;2023-07-16T03:34:35;11.15;;;8.75;;
75793;SDS011;64418;47.536;19.074;2023-07-16T03:37:00;8.97;;;7.90;;
75793;SDS011;64418;47.536;19.074;2023-07-16T03:39:26;11.13;;;7.60;;
75793;SDS011;64418;47.536;19.074;2023-07-16T03:41:52;10.60;;;7.45;;
75793;SDS011;64418;47.536;19.074;2023-07-16T03:44:19;11.80;;;7.70;;
75793;SDS011;64418;47.536;19.074;2023-07-16T03:47:05;9.70;;;7.10;;
75793;SDS011;64418;47.536;19.074;2023-07-16T03:49:31;9.57;;;7.37;;
75793;SDS011;64418;47.536;19.074;2023-07-16T03:52:16;10.55;;;7.57;;
75793;SDS011;64418;47.536;19.074;2023-07-16T03:54:43;8.20;;;7.13;;
75793;SDS011;64418;47.536;19.074;2023-07-16T03:57:09;13.32;;;7.10;;
75793;SDS011;64418;47.536;19.074;2023-07-16T03:59:36;7.82;;;6.68;;
75793;SDS011;64418;47.536;19.074;2023-07-16T04:02:02;7.87;;;6.77;;
75793;SDS011;64418;47.536;19.074;2023-07-16T04:04:48;9.15;;;7.10;;
75793;SDS011;64418;47.536;19.074;2023-07-16T04:07:34;8.18;;;6.18;;
75793;SDS011;64418;47.536;19.074;2023-07-16T04:10:00;7.03;;;5.43;;
75793;SDS011;64418;47.536;19.074;2023-07-16T04:12:46;6.27;;;5.50;;
75793;SDS011;64418;47.536;19.074;2023-07-16T04:15:13;8.60;;;5.68;;
75793;SDS011;64418;47.536;19.074;2023-07-16T04:17:42;9.55;;;6.93;;
75793;SDS011;64418;47.536;19.074;2023-07-16T04:20:11;9.88;;;5.97;;
75793;SDS011;64418;47.536;19.074;2023-07-16T04:22:40;7.47;;;5.70;;
75793;SDS011;64418;47.536;19.074;2023-07-16T04:25:29;11.03;;;6.20;;
75793;SDS011;64418;47.536;19.074;2023-07-16T04:27:55;9.85;;;6.18;;
75793;SDS011;64418;47.536;19.074;2023-07-16T04:30:22;11.32;;;5.87;;
75793;SDS011;64418;47.536;19.074;2023-07-16T04:32:48;12.85;;;6.57;;
75793;SDS011;64418;47.536;19.074;2023-07-16T04:35:14;8.23;;;5.83;;
75793;SDS011;64418;47.536;19.074;2023-07-16T04:37:40;6.90;;;5.77;;
75793;SDS011;64418;47.536;19.074;2023-07-16T04:40:06;7.12;;;6.20;;
75793;SDS011;64418;47.536;19.074;2023-07-16T04:42:33;10.27;;;6.43;;
75793;SDS011;64418;47.536;19.074;2023-07-16T04:44:59;6.37;;;5.47;;
75793;SDS011;64418;47.536;19.074;2023-07-16T04:47:34;7.95;;;6.00;;
75793;SDS011;64418;47.536;19.074;2023-07-16T04:50:00;8.98;;;5.97;;
75793;SDS011;64418;47.536;19.074;2023-07-16T04:52:47;10.07;;;5.55;;
75793;SDS011;64418;47.536;19.074;2023-07-16T04:55:14;7.97;;;5.60;;
75793;SDS011;64418;47.536;19.074;2023-07-16T04:57:41;9.50;;;6.80;;
75793;SDS011;64418;47.536;19.074;2023-07-16T05:00:27;7.87;;;6.60;;
75793;SDS011;64418;47.536;19.074;2023-07-16T05:02:54;7.87;;;5.70;;
75793;SDS011;64418;47.536;19.074;2023-07-16T05:05:20;7.85;;;5.80;;
75793;SDS011;64418;47.536;19.074;2023-07-16T05:07:49;11.97;;;6.87;;
75793;SDS011;64418;47.536;19.074;2023-07-16T05:10:35;9.25;;;6.03;;
75793;SDS011;64418;47.536;19.074;2023-07-16T05:13:01;7.68;;;5.85;;
75793;SDS011;64418;47.536;19.074;2023-07-16T05:15:27;6.57;;;5.80;;
75793;SDS011;64418;47.536;19.074;2023-07-16T05:17:55;8.73;;;5.27;;
75793;SDS011;64418;47.536;19.074;2023-07-16T05:20:21;7.00;;;5.45;;
75793;SDS011;64418;47.536;19.074;2023-07-16T05:23:09;6.30;;;5.57;;
75793;SDS011;64418;47.536;19.074;2023-07-16T05:25:56;7.68;;;5.70;;
75793;SDS011;64418;47.536;19.074;2023-07-16T05:28:45;7.95;;;5.40;;
75793;SDS011;64418;47.536;19.074;2023-07-16T05:31:11;8.13;;;5.50;;
75793;SDS011;64418;47.536;19.074;2023-07-16T05:33:59;9.63;;;5.35;;
75793;SDS011;64418;47.536;19.074;2023-07-16T05:36:44;6.78;;;5.28;;
75793;SDS011;64418;47.536;19.074;2023-07-16T05:39:10;7.80;;;5.40;;
75793;SDS011;64418;47.536;19.074;2023-07-16T05:41:56;8.10;;;5.37;;
75793;SDS011;64418;47.536;19.074;2023-07-16T05:44:23;8.77;;;4.93;;
75793;SDS011;64418;47.536;19.074;2023-07-16T05:46:49;9.38;;;4.95;;
75793;SDS011;64418;47.536;19.074;2023-07-16T05:49:17;9.30;;;5.45;;
75793;SDS011;64418;47.536;19.074;2023-07-16T05:51:44;7.22;;;5.30;;
75793;SDS011;64418;47.536;19.074;2023-07-16T05:54:10;13.60;;;6.85;;
75793;SDS011;64418;47.536;19.074;2023-07-16T05:56:39;6.97;;;5.13;;
75793;SDS011;64418;47.536;19.074;2023-07-16T05:59:25;11.52;;;5.40;;
75793;SDS011;64418;47.536;19.074;2023-07-16T06:01:51;7.57;;;5.20;;
75793;SDS011;64418;47.536;19.074;2023-07-16T06:04:22;5.87;;;4.93;;
75793;SDS011;64418;47.536;19.074;2023-07-16T06:06:48;6.72;;;5.40;;
75793;SDS011;64418;47.536;19.074;2023-07-16T06:09:14;10.03;;;5.40;;
75793;SDS011;64418;47.536;19.074;2023-07-16T06:11:40;10.05;;;5.75;;
75793;SDS011;64418;47.536;19.074;2023-07-16T06:14:26;8.68;;;5.25;;
75793;SDS011;64418;47.536;19.074;2023-07-16T06:16:52;6.65;;;5.18;;
75793;SDS011;64418;47.536;19.074;2023-07-16T06:19:18;6.60;;;5.10;;
75793;SDS011;64418;47.536;19.074;2023-07-16T06:21:46;6.60;;;5.60;;
75793;SDS011;64418;47.536;19.074;2023-07-16T06:24:13;7.12;;;5.07;;
75793;SDS011;64418;47.536;19.074;2023-07-16T06:26:39;8.13;;;5.15;;
75793;SDS011;64418;47.536;19.074;2023-07-16T06:29:05;8.48;;;5.47;;
75793;SDS011;64418;47.536;19.074;2023-07-16T06:31:31;6.27;;;4.87;;
75793;SDS011;64418;47.536;19.074;2023-07-16T06:33:57;5.60;;;4.57;;
75793;SDS011;64418;47.536;19.074;2023-07-16T06:36:24;9.02;;;5.03;;
75793;SDS011;64418;47.536;19.074;2023-07-16T06:38:51;4.85;;;4.30;;
75793;SDS011;64418;47.536;19.074;2023-07-16T06:41:17;8.38;;;5.30;;
75793;SDS011;64418;47.536;19.074;2023-07-16T06:43:43;6.63;;;4.93;;
75793;SDS011;64418;47.536;19.074;2023-07-16T06:46:09;8.75;;;4.97;;
75793;SDS011;64418;47.536;19.074;2023-07-16T06:48:55;5.57;;;4.75;;
75793;SDS011;64418;47.536;19.074;2023-07-16T06:51:21;6.22;;;4.60;;
75793;SDS011;64418;47.536;19.074;2023-07-16T06:53:47;7.27;;;4.67;;
75793;SDS011;64418;47.536;19.074;2023-07-16T06:56:14;7.53;;;4.60;;
75793;SDS011;64418;47.536;19.074;2023-07-16T06:58:43;7.70;;;5.25;;
75793;SDS011;64418;47.536;19.074;2023-07-16T07:01:09;7.60;;;5.10;;
75793;SDS011;64418;47.536;19.074;2023-07-16T07:03:55;5.37;;;4.87;;
75793;SDS011;64418;47.536;19.074;2023-07-16T07:06:44;7.07;;;5.00;;
75793;SDS011;64418;47.536;19.074;2023-07-16T07:09:11;5.67;;;4.60;;
75793;SDS011;64418;47.536;19.074;2023-07-16T07:11:59;7.22;;;4.62;;
75793;SDS011;64418;47.536;19.074;2023-07-16T07:14:46;6.57;;;4.47;;
75793;SDS011;64418;47.536;19.074;2023-07-16T07:17:12;7.05;;;4.85;;
75793;SDS011;64418;47.536;19.074;2023-07-16T07:19:39;8.02;;;4.68;;
75793;SDS011;64418;47.536;19.074;2023-07-16T07:22:26;6.37;;;4.57;;
75793;SDS011;64418;47.536;19.074;2023-07-16T07:24:52;6.75;;;4.40;;
75793;SDS011;64418;47.536;19.074;2023-07-16T07:27:22;5.10;;;4.15;;
75793;SDS011;64418;47.536;19.074;2023-07-16T07:30:08;5.07;;;4.53;;
75793;SDS011;64418;47.536;19.074;2023-07-16T07:32:38;5.00;;;4.50;;
75793;SDS011;64418;47.536;19.074;2023-07-16T07:35:04;5.60;;;4.70;;
75793;SDS011;64418;47.536;19.074;2023-07-16T07:37:30;6.47;;;4.75;;
75793;SDS011;64418;47.536;19.074;2023-07-16T07:39:58;6.53;;;4.60;;
75793;SDS011;64418;47.536;19.074;2023-07-16T07:42:29;6.03;;;4.40;;
75793;SDS011;64418;47.536;19.074;2023-07-16T07:45:19;5.20;;;4.27;;
75793;SDS011;64418;47.536;19.074;2023-07-16T07:50:41;6.87;;;4.53;;
75793;SDS011;64418;47.536;19.074;2023-07-16T07:53:11;6.18;;;4.25;;
75793;SDS011;64418;47.536;19.074;2023-07-16T07:55:58;8.48;;;4.40;;
75793;SDS011;64418;47.536;19.074;2023-07-16T07:58:39;8.40;;;4.60;;
75793;SDS011;64418;47.536;19.074;2023-07-16T08:03:58;8.60;;;4.60;;
75793;SDS011;64418;47.536;19.074;2023-07-16T08:06:44;7.65;;;4.18;;
75793;SDS011;64418;47.536;19.074;2023-07-16T08:09:10;6.20;;;4.40;;
75793;SDS011;64418;47.536;19.074;2023-07-16T08:11:39;7.20;;;4.27;;
75793;SDS011;64418;47.536;19.074;2023-07-16T08:14:26;9.07;;;4.43;;
75793;SDS011;64418;47.536;19.074;2023-07-16T08:16:52;6.32;;;4.57;;
75793;SDS011;64418;47.536;19.074;2023-07-16T08:19:38;9.27;;;4.45;;
75793;SDS011;64418;47.536;19.074;2023-07-16T08:22:06;9.80;;;4.53;;
75793;SDS011;64418;47.536;19.074;2023-07-16T08:24:31;7.10;;;4.13;;
75793;SDS011;64418;47.536;19.074;2023-07-16T08:27:18;7.97;;;4.40;;
75793;SDS011;64418;47.536;19.074;2023-07-16T08:29:46;6.35;;;4.57;;
75793;SDS011;64418;47.536;19.074;2023-07-16T08:32:12;6.70;;;4.28;;
75793;SDS011;64418;47.536;19.074;2023-07-16T08:34:41;6.72;;;4.20;;
75793;SDS011;64418;47.536;19.074;2023-07-16T08:37:10;7.10;;;4.10;;
75793;SDS011;64418;47.536;19.074;2023-07-16T08:39:56;5.30;;;3.53;;
75793;SDS011;64418;47.536;19.074;2023-07-16T08:42:23;5.35;;;3.33;;
75793;SDS011;64418;47.536;19.074;2023-07-16T08:44:51;4.43;;;3.92;;
75793;SDS011;64418;47.536;19.074;2023-07-16T08:47:38;4.40;;;3.85;;
75793;SDS011;64418;47.536;19.074;2023-07-16T08:50:26;4.90;;;4.07;;
75793;SDS011;64418;47.536;19.074;2023-07-16T08:52:53;5.30;;;3.45;;
75793;SDS011;64418;47.536;19.074;2023-07-16T08:55:21;9.35;;;4.05;;
75793;SDS011;64418;47.536;19.074;2023-07-16T08:58:07;5.15;;;3.80;;
75793;SDS011;64418;47.536;19.074;2023-07-16T09:00:35;8.93;;;4.47;;
75793;SDS011;64418;47.536;19.074;2023-07-16T09:03:01;5.03;;;3.77;;
75793;SDS011;64418;47.536;19.074;2023-07-16T09:05:28;5.18;;;3.90;;
75793;SDS011;64418;47.536;19.074;2023-07-16T09:07:55;5.18;;;3.95;;
75793;SDS011;64418;47.536;19.074;2023-07-16T09:10:21;8.40;;;4.20;;
75793;SDS011;64418;47.536;19.074;2023-07-16T09:13:10;8.10;;;4.22;;
75793;SDS011;64418;47.536;19.074;2023-07-16T09:15:38;5.43;;;4.30;;
75793;SDS011;64418;47.536;19.074;2023-07-16T09:18:27;7.30;;;4.87;;
75793;SDS011;64418;47.536;19.074;2023-07-16T09:20:56;6.68;;;5.00;;
75793;SDS011;64418;47.536;19.074;2023-07-16T09:23:49;8.52;;;5.32;;
75793;SDS011;64418;47.536;19.074;2023-07-16T09:26:15;6.18;;;5.10;;
75793;SDS011;64418;47.536;19.074;2023-07-16T09:28:41;7.43;;;4.97;;
75793;SDS011;64418;47.536;19.074;2023-07-16T09:31:09;6.37;;;5.40;;
75793;SDS011;64418;47.536;19.074;2023-07-16T09:33:56;5.82;;;5.12;;
75793;SDS011;64418;47.536;19.074;2023-07-16T09:36:24;8.30;;;5.65;;
75793;SDS011;64418;47.536;19.074;2023-07-16T09:38:50;6.53;;;5.27;;
75793;SDS011;64418;47.536;19.074;2023-07-16T09:41:38;9.65;;;5.60;;
75793;SDS011;64418;47.536;19.074;2023-07-16T09:44:25;6.35;;;4.97;;
75793;SDS011;64418;47.536;19.074;2023-07-16T09:46:57;5.53;;;5.03;;
75793;SDS011;64418;47.536;19.074;2023-07-16T09:49:23;7.28;;;5.60;;
75793;SDS011;64418;47.536;19.074;2023-07-16T09:51:53;8.77;;;5.67;;
75793;SDS011;64418;47.536;19.074;2023-07-16T09:54:23;7.60;;;6.10;;
75793;SDS011;64418;47.536;19.074;2023-07-16T09:56:52;7.62;;;6.43;;
75793;SDS011;64418;47.536;19.074;2023-07-16T09:59:25;7.85;;;6.78;;
75793;SDS011;64418;47.536;19.074;2023-07-16T10:01:54;8.98;;;6.62;;
75793;SDS011;64418;47.536;19.074;2023-07-16T10:04:48;10.13;;;7.00;;
75793;SDS011;64418;47.536;19.074;2023-07-16T10:07:34;9.25;;;6.93;;
75793;SDS011;64418;47.536;19.074;2023-07-16T10:10:02;8.93;;;7.30;;
75793;SDS011;64418;47.536;19.074;2023-07-16T10:12:34;7.82;;;6.40;;
75793;SDS011;64418;47.536;19.074;2023-07-16T10:15:01;9.00;;;7.18;;
75793;SDS011;64418;47.536;19.074;2023-07-16T10:17:51;8.83;;;7.20;;
75793;SDS011;64418;47.536;19.074;2023-07-16T10:20:17;9.23;;;6.22;;
75793;SDS011;64418;47.536;19.074;2023-07-16T10:22:53;9.00;;;6.68;;
75793;SDS011;64418;47.536;19.074;2023-07-16T10:25:22;11.38;;;6.80;;
75793;SDS011;64418;47.536;19.074;2023-07-16T10:27:51;9.60;;;6.97;;
75793;SDS011;64418;47.536;19.074;2023-07-16T10:30:21;9.50;;;6.90;;
75793;SDS011;64418;47.536;19.074;2023-07-16T10:32:50;8.15;;;6.70;;
75793;SDS011;64418;47.536;19.074;2023-07-16T10:35:18;8.30;;;6.93;;
75793;SDS011;64418;47.536;19.074;2023-07-16T10:38:06;8.00;;;6.68;;
75793;SDS011;64418;47.536;19.074;2023-07-16T10:40:32;8.50;;;7.70;;
75793;SDS011;64418;47.536;19.074;2023-07-16T10:43:07;9.50;;;6.70;;
75793;SDS011;64418;47.536;19.074;2023-07-16T10:45:57;8.57;;;6.57;;
75793;SDS011;64418;47.536;19.074;2023-07-16T10:48:27;9.00;;;6.68;;
75793;SDS011;64418;47.536;19.074;2023-07-16T10:50:54;7.47;;;6.78;;
75793;SDS011;64418;47.536;19.074;2023-07-16T10:53:21;9.48;;;7.10;;
75793;SDS011;64418;47.536;19.074;2023-07-16T10:55:48;11.03;;;6.30;;
75793;SDS011;64418;47.536;19.074;2023-07-16T10:58:14;7.85;;;5.95;;
75793;SDS011;64418;47.536;19.074;2023-07-16T11:00:41;7.65;;;6.18;;
75793;SDS011;64418;47.536;19.074;2023-07-16T11:03:07;7.80;;;6.15;;
75793;SDS011;64418;47.536;19.074;2023-07-16T11:05:41;7.13;;;6.17;;
75793;SDS011;64418;47.536;19.074;2023-07-16T11:08:10;9.88;;;6.45;;
75793;SDS011;64418;47.536;19.074;2023-07-16T11:11:06;9.20;;;6.55;;
75793;SDS011;64418;47.536;19.074;2023-07-16T11:13:34;7.12;;;6.28;;
75793;SDS011;64418;47.536;19.074;2023-07-16T11:16:06;7.87;;;6.35;;
75793;SDS011;64418;47.536;19.074;2023-07-16T11:18:33;11.30;;;6.40;;
75793;SDS011;64418;47.536;19.074;2023-07-16T11:21:01;8.27;;;6.20;;
75793;SDS011;64418;47.536;19.074;2023-07-16T11:23:32;8.07;;;6.05;;
75793;SDS011;64418;47.536;19.074;2023-07-16T11:26:01;7.32;;;5.75;;
75793;SDS011;64418;47.536;19.074;2023-07-16T11:28:35;7.32;;;5.65;;
75793;SDS011;64418;47.536;19.074;2023-07-16T11:31:09;7.53;;;5.90;;
75793;SDS011;64418;47.536;19.074;2023-07-16T11:33:59;8.45;;;6.18;;
75793;SDS011;64418;47.536;19.074;2023-07-16T11:36:47;11.52;;;5.75;;
75793;SDS011;64418;47.536;19.074;2023-07-16T11:39:13;5.93;;;5.22;;
75793;SDS011;64418;47.536;19.074;2023-07-16T11:41:39;6.37;;;5.03;;
75793;SDS011;64418;47.536;19.074;2023-07-16T11:44:26;7.57;;;5.50;;
75793;SDS011;64418;47.536;19.074;2023-07-16T11:47:17;8.10;;;5.60;;
75793;SDS011;64418;47.536;19.074;2023-07-16T11:49:44;8.60;;;6.07;;
75793;SDS011;64418;47.536;19.074;2023-07-16T11:52:12;6.10;;;5.50;;
75793;SDS011;64418;47.536;19.074;2023-07-16T11:54:58;8.32;;;5.45;;
75793;SDS011;64418;47.536;19.074;2023-07-16T11:57:24;6.40;;;5.27;;
75793;SDS011;64418;47.536;19.074;2023-07-16T11:59:50;8.57;;;5.70;;
75793;SDS011;64418;47.536;19.074;2023-07-16T12:02:36;7.15;;;5.10;;
75793;SDS011;64418;47.536;19.074;2023-07-16T12:05:04;6.57;;;5.80;;
75793;SDS011;64418;47.536;19.074;2023-07-16T12:07:33;8.68;;;5.37;;
75793;SDS011;64418;47.536;19.074;2023-07-16T12:10:00;9.60;;;5.60;;
75793;SDS011;64418;47.536;19.074;2023-07-16T12:12:48;7.20;;;5.55;;
75793;SDS011;64418;47.536;19.074;2023-07-16T12:15:14;8.90;;;5.32;;
75793;SDS011;64418;47.536;19.074;2023-07-16T12:17:40;6.95;;;4.85;;
75793;SDS011;64418;47.536;19.074;2023-07-16T12:20:26;5.87;;;4.90;;
75793;SDS011;64418;47.536;19.074;2023-07-16T12:22:53;6.63;;;5.00;;
75793;SDS011;64418;47.536;19.074;2023-07-16T12:25:20;11.73;;;5.45;;
75793;SDS011;64418;47.536;19.074;2023-07-16T12:27:49;7.97;;;4.82;;
75793;SDS011;64418;47.536;19.074;2023-07-16T12:30:34;7.95;;;4.37;;
75793;SDS011;64418;47.536;19.074;2023-07-16T12:33:01;7.63;;;4.43;;
75793;SDS011;64418;47.536;19.074;2023-07-16T12:35:47;7.68;;;4.70;;
75793;SDS011;64418;47.536;19.074;2023-07-16T12:38:16;6.45;;;4.60;;
75793;SDS011;64418;47.536;19.074;2023-07-16T12:40:43;8.02;;;4.62;;
75793;SDS011;64418;47.536;19.074;2023-07-16T12:43:08;11.23;;;4.78;;
75793;SDS011;64418;47.536;19.074;2023-07-16T12:45:35;8.93;;;4.90;;
75793;SDS011;64418;47.536;19.074;2023-07-16T12:48:01;8.38;;;4.57;;
75793;SDS011;64418;47.536;19.074;2023-07-16T12:50:28;6.45;;;4.47;;
75793;SDS011;64418;47.536;19.074;2023-07-16T12:52:54;7.32;;;4.72;;
75793;SDS011;64418;47.536;19.074;2023-07-16T12:55:21;5.37;;;4.30;;
75793;SDS011;64418;47.536;19.074;2023-07-16T12:58:07;7.95;;;4.15;;
75793;SDS011;64418;47.536;19.074;2023-07-16T13:00:33;5.47;;;4.25;;
75793;SDS011;64418;47.536;19.074;2023-07-16T13:03:01;6.65;;;4.75;;
75793;SDS011;64418;47.536;19.074;2023-07-16T13:05:27;5.40;;;4.45;;
75793;SDS011;64418;47.536;19.074;2023-07-16T13:08:15;6.80;;;4.20;;
75793;SDS011;64418;47.536;19.074;2023-07-16T13:10:45;8.15;;;4.50;;
75793;SDS011;64418;47.536;19.074;2023-07-16T13:13:15;7.20;;;4.50;;
75793;SDS011;64418;47.536;19.074;2023-07-16T13:15:41;9.90;;;4.35;;
75793;SDS011;64418;47.536;19.074;2023-07-16T13:18:27;8.23;;;4.30;;
75793;SDS011;64418;47.536;19.074;2023-07-16T13:21:16;5.83;;;4.17;;
75793;SDS011;64418;47.536;19.074;2023-07-16T13:23:42;8.35;;;4.75;;
75793;SDS011;64418;47.536;19.074;2023-07-16T13:26:29;7.43;;;4.53;;
75793;SDS011;64418;47.536;19.074;2023-07-16T13:29:16;9.15;;;4.72;;
75793;SDS011;64418;47.536;19.074;2023-07-16T13:31:42;8.90;;;5.20;;
75793;SDS011;64418;47.536;19.074;2023-07-16T13:34:08;7.03;;;4.23;;
75793;SDS011;64418;47.536;19.074;2023-07-16T13:36:57;6.45;;;4.75;;
75793;SDS011;64418;47.536;19.074;2023-07-16T13:39:23;8.55;;;4.62;;
75793;SDS011;64418;47.536;19.074;2023-07-16T13:41:54;7.55;;;4.47;;
75793;SDS011;64418;47.536;19.074;2023-07-16T13:44:21;7.03;;;5.15;;
75793;SDS011;64418;47.536;19.074;2023-07-16T13:47:07;5.87;;;4.60;;
75793;SDS011;64418;47.536;19.074;2023-07-16T13:49:33;5.82;;;4.30;;
75793;SDS011;64418;47.536;19.074;2023-07-16T13:51:59;5.37;;;4.60;;
75793;SDS011;64418;47.536;19.074;2023-07-16T13:54:44;5.20;;;4.70;;
75793;SDS011;64418;47.536;19.074;2023-07-16T13:57:12;7.28;;;4.60;;
75793;SDS011;64418;47.536;19.074;2023-07-16T13:59:38;9.60;;;5.57;;
75793;SDS011;64418;47.536;19.074;2023-07-16T14:02:04;7.32;;;4.97;;
75793;SDS011;64418;47.536;19.074;2023-07-16T14:04:30;7.57;;;4.93;;
75793;SDS011;64418;47.536;19.074;2023-07-16T14:07:16;7.07;;;4.70;;
75793;SDS011;64418;47.536;19.074;2023-07-16T14:09:44;5.87;;;4.70;;
75793;SDS011;64418;47.536;19.074;2023-07-16T14:12:12;6.63;;;4.77;;
75793;SDS011;64418;47.536;19.074;2023-07-16T14:14:38;8.48;;;4.95;;
75793;SDS011;64418;47.536;19.074;2023-07-16T14:17:04;6.37;;;4.70;;
75793;SDS011;64418;47.536;19.074;2023-07-16T14:19:30;7.57;;;5.22;;
75793;SDS011;64418;47.536;19.074;2023-07-16T14:22:16;7.97;;;4.50;;
75793;SDS011;64418;47.536;19.074;2023-07-16T14:24:43;6.03;;;4.47;;
75793;SDS011;64418;47.536;19.074;2023-07-16T14:27:35;8.20;;;5.25;;
75793;SDS011;64418;47.536;19.074;2023-07-16T14:30:01;7.70;;;4.97;;
75793;SDS011;64418;47.536;19.074;2023-07-16T14:32:47;9.93;;;4.57;;
75793;SDS011;64418;47.536;19.074;2023-07-16T14:35:13;6.13;;;4.20;;
75793;SDS011;64418;47.536;19.074;2023-07-16T14:37:41;7.55;;;4.70;;
75793;SDS011;64418;47.536;19.074;2023-07-16T14:40:10;6.15;;;4.93;;
75793;SDS011;64418;47.536;19.074;2023-07-16T14:42:38;7.05;;;4.53;;
75793;SDS011;64418;47.536;19.074;2023-07-16T14:45:05;9.38;;;4.75;;
75793;SDS011;64418;47.536;19.074;2023-07-16T14:47:32;8.43;;;4.93;;
75793;SDS011;64418;47.536;19.074;2023-07-16T14:50:19;6.57;;;4.90;;
75793;SDS011;64418;47.536;19.074;2023-07-16T14:53:08;7.95;;;4.72;;
75793;SDS011;64418;47.536;19.074;2023-07-16T14:55:36;5.32;;;4.57;;
75793;SDS011;64418;47.536;19.074;2023-07-16T14:58:04;9.07;;;4.90;;
75793;SDS011;64418;47.536;19.074;2023-07-16T15:00:29;11.45;;;5.18;;